• Join FlightAware (Why Join?)
  • Login
  • US Flag 
10:42AM EDT


 

Airport Tracker/Info


-or-


 

Live Flight TrackerFlight Track Log ✈ N317FL ✈ 27-Apr-2013 ✈ KRDU - KAJR

Flight Track Log - Related Links

Times and Time Zones

All times are in EDT time to prevent confusion due to time zone crossing. See the N317FL flight status page for this flight to view local times or setup timezone preferences in your user account.

Time Position Orientation Groundspeed Altitude Reporting Facility
EDT Latitude Longitude Course Direction KTS MPH feet Rate Location/Type
10:28AM 35.9050 -78.7640 17° North 215 247 2,800  Level FlightAware
10:28AM 35.9270 -78.7790 331° Northwest 229 264 4,600 4,320 Climbing FlightAware
10:28AM 35.9300 -78.7970 282° West 234 269 5,700 4,620 Climbing FlightAware
10:29AM 35.9250 -78.8370 261° West 240 276 8,100 4,320 Climbing FlightAware
10:29AM 35.9160 -78.8920 259° West 259 298 10,800 2,520 Climbing FlightAware
10:30AM 35.9030 -78.9580 256° West 310 357 11,500 1,380 Climbing FlightAware
10:31AM 35.8870 -79.0360 256° West 317 365 12,800 3,060 Climbing FlightAware
10:31AM 35.8770 -79.0910 257° West 293 337 15,600 2,100 Climbing FlightAware
10:32AM 35.8640 -79.1570 256° West 293 337 15,600  Level FlightAware
10:33AM 35.8540 -79.2130 258° West 293 337 15,600 4,140 Level FlightAware
10:34AM 35.8310 -79.3210 255° West 293 337 22,500 4,140 Climbing FlightAware
10:34AM 35.8190 -79.3750 255° West 293 337 22,500  Level FlightAware
10:35AM 35.8070 -79.4300 255° West 293 337 22,500  Level FlightAware
10:36AM 35.7950 -79.4850 255° West 293 337 22,500  Level FlightAware
10:37AM 35.7800 -79.5540 255° West 293 337 22,500  Level FlightAware
10:37AM 35.7680 -79.6090 255° West 293 337 22,500 4,740 Level FlightAware
10:38AM 35.7756 -79.7719 255° West 334 384 30,000 1,380 Climbing Atlanta Center
10:44AM 35.5810 -80.4970 255° West 377 434 32,000 300 Climbing FlightAware
10:45AM 35.5510 -80.5890 248° West 376 433 32,000  Level FlightAware
10:46AM 35.5190 -80.6820 247° West 377 434 32,000  Level FlightAware
10:46AM 35.4920 -80.7620 248° West 377 434 32,000  Level FlightAware
10:47AM 35.4660 -80.8400 248° West 377 434 32,000 -540 Level FlightAware
10:48AM 35.4340 -80.9320 247° West 381 438 31,300 -960 Descending FlightAware
10:48AM 35.4040 -81.0210 248° West 385 443 30,600 -1,020 Descending FlightAware
10:49AM 35.3770 -81.1000 247° West 386 444 29,900 -1,080 Descending FlightAware
10:50AM 35.3480 -81.1830 247° West 389 448 29,200 -1,020 Descending FlightAware
10:50AM 35.3200 -81.2650 247° West 389 448 28,500 -1,020 Descending FlightAware
10:51AM 35.2900 -81.3530 247° West 388 447 27,800 -960 Descending FlightAware
10:52AM 35.2490 -81.4690 247° West 387 445 26,900 -540 Descending FlightAware
10:53AM 35.2230 -81.5490 248° West 387 445 26,900 -600 Level FlightAware
10:54AM 35.2450 -81.4830 68° East 386 444 26,000 -1,200 Descending FlightAware
10:54AM 35.2510 -81.4660 67° East 386 444 25,000 -1,140 Descending FlightAware
10:55AM 35.2510 -81.4610 90° East 346 398 24,100 -600 Descending FlightAware
10:56AM 35.2290 -81.5220 246° West 346 398 24,100  Level FlightAware
10:57AM 35.2070 -81.5830 246° West 346 398 24,100  Level FlightAware
10:57AM 35.1850 -81.6440 246° West 346 398 24,100 -2,700 Level FlightAware
10:58AM 35.0250 -82.1080 247° West 320 368 20,500 -2,580 Descending FlightAware
10:59AM 35.0020 -82.1740 247° West 320 368 20,500  Level FlightAware
11:00AM 34.9780 -82.2450 248° West 320 368 20,500  Level FlightAware
11:00AM 34.9580 -82.3010 246° West 320 368 20,500  Level FlightAware
11:01AM 34.9380 -82.3580 247° West 320 368 20,500  Level FlightAware
11:02AM 34.9190 -82.4140 248° West 320 368 20,500 -5,880 Level FlightAware
11:02AM 34.8967 -82.4761 248° West 278 320 12,800 -5,640 Descending Atlanta Center
11:03AM 34.8767 -82.5525 252° West 263 303 11,200 -1,440 Descending Atlanta Center
11:04AM 34.8569 -82.6414 255° West 257 296 10,000 -1,320 Descending Atlanta Center
11:05AM 34.8369 -82.7178 252° West 257 296 8,600 -1,440 Descending Atlanta Center
11:06AM 34.8189 -82.7939 254° West 252 290 7,200 -1,500 Descending Atlanta Center
11:07AM 34.7969 -82.8803 253° West 246 283 5,700 -1,140 Descending Atlanta Center
11:08AM 34.7786 -82.9564 254° West 246 283 5,000 -360 Descending Atlanta Center
11:09AM 34.7606 -83.0350 254° West 246 283 5,000  Level Atlanta Center
11:10AM 34.7403 -83.1161 253° West 246 283 5,000  Level Atlanta Center
11:11AM 34.7200 -83.1897 251° West 246 283 5,000  Level Atlanta Center
11:12AM 34.6997 -83.2708 253° West 246 283 5,000 -300 Level Atlanta Center
11:13AM 34.6686 -83.3114 227° Southwest 195 224 4,500 -540 Descending Atlanta Center
11:14AM 34.6208 -83.3447 210° Southwest 195 224 4,000 -600 Descending Atlanta Center
11:15AM 34.5878 -83.3878 227° Southwest 185 213 3,300 -720 Descending Atlanta Center